Strona główna
METAR-TAF:

METAR-TAF

Lotnisko :

Wooster, Ohio, Stany Zjednoczone

Szerokość geograficzna: 40-52-23N, Długość geograficzna: 081-53-12W, wysokość: 346 m

Aktualna obserwacja pogody

Raport powstał 52 minut temu, godzina 15:56 UTC
Wiatr 8 kt od południowo-południowy zachód
Temperatura 26°C
Wilgotność 74%
Ciśnienie 1019 hPa
Widzialność: 16.1 km
Przerywane chmury na wysokości 10000 ft
Zachmurzenie całkowite na wysokości 12000 ft

METAR: KBJJ 161556Z AUTO 21008KT 10SM BKN100 OVC120 26/21 A3010 RMK AO2 SLP185 T02560211

czas: 12:48 (16:48 UTC)


TAF: brakujący

Obserwacja i prognoza pogody dla ponad 4000 lotnisk (raport METAR i TAF).

Dostępne stacje oznaczono żółtymi i czerwonymi punktami na mapie.

Najedź kursorem aby zobaczyć nazwę stacji.

Kliknij aby zobaczyć obserwacje i prognozy pogody.

Aby zmienić mapę: kliknij na zielony przycisk z czarnym krzyżykiem, aby powiększyć; na zielony przycisk z myślnikiem, aby pomniejszyć; na zielone strzałki, aby przejść do map sąsiednich.


METAR-TAF: